• Join FlightAware (Why Join?)
  • Login
  • US Flag 
10:05AM EDT


 

Airport Tracker/Info


-or-


 

Live Flight TrackerFlight Track Log ✈ CCA1681 ✈ 23-Jul-2014 ✈ ZBAA / PEK - ZYMD / MDG

Flight Track Log - Related Links

Times and Time Zones

All times are in EDT time to prevent confusion due to time zone crossing. See the CCA1681 flight status page for this flight to view local times or setup timezone preferences in your user account.

Time Position Orientation Groundspeed Altitude Reporting Facility
EDT Latitude Longitude Course Direction KTS MPH feet Rate Location/Type
06:19AM 40.2680 117.0286 61° Northeast  Level Estimated
06:20AM 40.3147 117.1400 61° Northeast  Level Estimated
06:21AM 40.3613 117.2516 61° Northeast  Level Estimated
06:22AM 40.4078 117.3633 61° Northeast  Level Estimated
06:23AM 40.4541 117.4751 61° Northeast  Level Estimated
06:24AM 40.5004 117.5872 61° Northeast  Level Estimated
06:25AM 40.5466 117.6993 62° Northeast  Level Estimated
06:26AM 40.5926 117.8116 62° Northeast  Level Estimated
06:27AM 40.6386 117.9241 62° Northeast  Level Estimated
06:28AM 40.6844 118.0368 62° Northeast  Level Estimated
06:29AM 40.7301 118.1495 62° Northeast  Level Estimated
06:30AM 40.7758 118.2625 62° Northeast  Level Estimated
06:31AM 40.8213 118.3756 62° Northeast  Level Estimated
06:32AM 40.8667 118.4888 62° Northeast  Level Estimated
06:33AM 40.9119 118.6022 62° Northeast  Level Estimated
06:34AM 40.9571 118.7158 62° Northeast  Level Estimated
06:35AM 41.0022 118.8295 62° Northeast  Level Estimated
06:36AM 41.0471 118.9434 62° Northeast  Level Estimated
06:37AM 41.0920 119.0574 62° Northeast  Level Estimated
06:38AM 41.1367 119.1716 62° Northeast  Level Estimated
06:39AM 41.1813 119.2860 63° Northeast  Level Estimated
06:40AM 41.2258 119.4005 63° Northeast  Level Estimated
06:41AM 41.2702 119.5151 63° Northeast  Level Estimated
06:42AM 41.3145 119.6299 63° Northeast  Level Estimated
06:43AM 41.3586 119.7449 63° Northeast  Level Estimated
06:44AM 41.4027 119.8600 63° Northeast  Level Estimated
06:45AM 41.4466 119.9753 63° Northeast  Level Estimated
06:46AM 41.4904 120.0907 63° Northeast  Level Estimated
06:47AM 41.5341 120.2063 63° Northeast  Level Estimated
06:48AM 41.5777 120.3221 63° Northeast  Level Estimated
06:49AM 41.6212 120.4380 63° Northeast  Level Estimated
06:50AM 41.6645 120.5540 63° Northeast  Level Estimated
06:51AM 41.7077 120.6702 63° Northeast  Level Estimated
06:52AM 41.7508 120.7866 64° Northeast  Level Estimated
06:53AM 41.7938 120.9031 64° Northeast  Level Estimated
06:54AM 41.8367 121.0198 64° Northeast  Level Estimated
06:55AM 41.8795 121.1366 64° Northeast  Level Estimated
06:56AM 41.9221 121.2536 64° Northeast  Level Estimated
06:57AM 41.9646 121.3708 64° Northeast  Level Estimated
06:58AM 42.0070 121.4881 64° Northeast  Level Estimated
06:59AM 42.0493 121.6056 64° Northeast  Level Estimated
07:00AM 42.0915 121.7232 64° Northeast  Level Estimated
07:01AM 42.1335 121.8409 64° Northeast  Level Estimated
07:02AM 42.1755 121.9589 64° Northeast  Level Estimated
07:03AM 42.2173 122.0770 64° Northeast  Level Estimated
07:04AM 42.2589 122.1952 64° Northeast  Level Estimated
07:05AM 42.3005 122.3136 65° Northeast  Level Estimated
07:06AM 42.3419 122.4322 65° Northeast  Level Estimated
07:07AM 42.3833 122.5509 65° Northeast  Level Estimated
07:08AM 42.4245 122.6697 65° Northeast  Level Estimated
07:09AM 42.4655 122.7888 65° Northeast  Level Estimated
07:10AM 42.5065 122.9080 65° Northeast  Level Estimated
07:11AM 42.5473 123.0273 65° Northeast  Level Estimated
07:12AM 42.5880 123.1468 65° Northeast  Level Estimated
07:13AM 42.6286 123.2664 65° Northeast  Level Estimated
07:14AM 42.6690 123.3862 65° Northeast  Level Estimated
07:15AM 42.7094 123.5062 65° Northeast  Level Estimated
07:16AM 42.7495 123.6263 65° Northeast  Level Estimated
07:17AM 42.7896 123.7466 66° East  Level Estimated
07:18AM 42.8296 123.8670 66° East  Level Estimated
07:19AM 42.8694 123.9876 66° East  Level Estimated
07:20AM 42.9091 124.1083 66° East  Level Estimated
07:21AM 42.9487 124.2292 66° East  Level Estimated
07:22AM 42.9881 124.3503 66° East  Level Estimated
07:23AM 43.0274 124.4715 66° East  Level Estimated
07:24AM 43.0666 124.5928 66° East  Level Estimated
07:25AM 43.1057 124.7143 66° East  Level Estimated
07:26AM 43.1446 124.8360 66° East  Level Estimated
07:27AM 43.1834 124.9578 66° East  Level Estimated
07:28AM 43.2220 125.0798 66° East  Level Estimated
07:29AM 43.2606 125.2020 67° East  Level Estimated
07:30AM 43.2990 125.3242 67° East  Level Estimated
07:31AM 43.3373 125.4467 67° East  Level Estimated
07:32AM 43.3754 125.5693 67° East  Level Estimated
07:33AM 43.4134 125.6920 67° East  Level Estimated
07:34AM 43.4513 125.8149 67° East  Level Estimated
07:35AM 43.4891 125.9380 67° East  Level Estimated
07:36AM 43.5267 126.0612 67° East  Level Estimated
07:37AM 43.5642 126.1846 67° East  Level Estimated
07:38AM 43.6015 126.3081 67° East  Level Estimated
07:39AM 43.6388 126.4318 67° East  Level Estimated
07:40AM 43.6758 126.5556 67° East  Level Estimated
07:41AM 43.7128 126.6796 68° East  Level Estimated
07:42AM 43.7496 126.8037 68° East  Level Estimated
07:43AM 43.7863 126.9280 68° East  Level Estimated
07:44AM 43.8229 127.0524 68° East  Level Estimated
07:45AM 43.8593 127.1770 68° East  Level Estimated
07:46AM 43.8956 127.3017 68° East  Level Estimated
07:47AM 43.9317 127.4266 68° East  Level Estimated
07:48AM 43.9677 127.5517 68° East  Level Estimated
07:49AM 44.0036 127.6769 68° East  Level Estimated
07:50AM 44.0393 127.8022 68° East  Level Estimated
07:51AM 44.0749 127.9277 68° East  Level Estimated
07:52AM 44.1104 128.0533 69° East  Level Estimated
07:53AM 44.1457 128.1792 69° East  Level Estimated
07:54AM 44.1809 128.3051 69° East  Level Estimated
07:55AM 44.2160 128.4312 69° East  Level Estimated
07:56AM 44.2509 128.5574 69° East  Level Estimated
07:57AM 44.2856 128.6839 69° East  Level Estimated
07:58AM 44.3203 128.8104 69° East  Level Estimated
07:59AM 44.3548 128.9371 69° East  Level Estimated
08:00AM 44.3891 129.0639 69° East  Level Estimated
08:01AM 44.4233 129.1909 69° East  Level Estimated
08:02AM 44.4574 129.3181 69° East  Level Estimated
08:03AM 44.4913 129.4454 69° East  Level Estimated
08:04AM 44.5241 129.5690 70° East  Level Estimated
08:05AM 44.5241 129.5690 North  Level Estimated
08:06AM 44.5241 129.5690 North  Level Estimated
08:07AM 44.5241 129.5690 North  Level Estimated
08:08AM 44.5241 129.5690 North  Level Estimated
08:09AM 44.5241 129.5690 North  Level Estimated
08:10AM 44.5241 129.5690 North  Level Estimated
08:11AM 44.5241 129.5690 North  Level Estimated
08:12AM 44.5241 129.5690 North  Level Estimated
08:13AM 44.5241 129.5690 North  Level Estimated
08:14AM 44.5241 129.5690 North  Level Estimated
08:15AM 44.5241 129.5690 North  Level Estimated
08:16AM 44.5241 129.5690 North  Level Estimated
08:17AM 44.5241 129.5690 North  Level Estimated
08:18AM 44.5241 129.5690 North  Level Estimated
08:19AM 44.5241 129.5690 North  Level Estimated
08:20AM 44.5241 129.5690 North  Level Estimated